createdAt,value
2023-01-03T00:04:35.521Z,22.22
2023-01-03T00:09:38.381Z,22.24
2023-01-03T00:14:43.531Z,22.22
2023-01-03T00:19:47.051Z,22.20
2023-01-03T00:24:50.273Z,22.20
2023-01-03T00:29:54.555Z,22.23
2023-01-03T00:35:02.991Z,22.20
2023-01-03T00:40:08.738Z,22.23
2023-01-03T00:45:17.587Z,22.18
2023-01-03T00:50:22.429Z,22.20
2023-01-03T00:55:25.364Z,22.19
2023-01-03T01:00:29.731Z,22.22
2023-01-03T01:05:32.480Z,22.21
2023-01-03T01:10:35.270Z,22.21
2023-01-03T01:15:39.439Z,22.20
2023-01-03T01:20:42.223Z,22.23
2023-01-03T01:25:44.964Z,22.21
2023-01-03T01:30:49.255Z,22.22
2023-01-03T01:35:52.072Z,22.21
2023-01-03T01:40:54.891Z,22.20
2023-01-03T01:45:59.206Z,22.20
2023-01-03T01:51:02.022Z,22.21
2023-01-03T01:56:06.231Z,22.20
2023-01-03T02:01:11.739Z,22.24
2023-01-03T02:06:15.585Z,22.21
2023-01-03T02:11:32.661Z,22.20
2023-01-03T02:16:58.062Z,22.19
2023-01-03T02:22:50.492Z,22.24
2023-01-03T02:28:42.008Z,22.21
2023-01-03T02:33:48.097Z,22.20
2023-01-03T02:38:53.991Z,22.20
2023-01-03T02:43:57.583Z,22.23
2023-01-03T02:49:03.949Z,22.23
2023-01-03T02:54:07.917Z,22.19
2023-01-03T02:59:12.842Z,22.21
2023-01-03T03:04:16.978Z,22.21
2023-01-03T03:09:19.803Z,22.24
2023-01-03T03:14:24.938Z,22.20
2023-01-03T03:19:48.016Z,22.19
2023-01-03T03:24:50.838Z,22.24
2023-01-03T03:29:53.649Z,22.23
2023-01-03T03:34:57.890Z,22.24
2023-01-03T03:40:18.071Z,22.23
2023-01-03T03:45:25.904Z,22.21
2023-01-03T03:50:31.799Z,22.23
2023-01-03T03:55:35.909Z,22.23
2023-01-03T04:00:39.797Z,22.21
2023-01-03T04:05:47.218Z,22.18
2023-01-03T04:10:50.382Z,22.21
2023-01-03T04:15:53.209Z,22.21
2023-01-03T04:20:57.384Z,22.23
2023-01-03T04:26:00.126Z,22.19
2023-01-03T04:31:02.885Z,22.16
2023-01-03T04:36:07.720Z,22.15
2023-01-03T04:41:10.602Z,22.08
2023-01-03T04:46:13.426Z,22.12
2023-01-03T04:51:17.568Z,22.07
2023-01-03T04:56:25.081Z,22.02
2023-01-03T05:01:27.936Z,21.95
2023-01-03T05:06:33.548Z,21.88
2023-01-03T05:11:36.426Z,21.82
2023-01-03T05:16:39.249Z,21.76
2023-01-03T05:22:00.806Z,21.70
2023-01-03T05:27:04.322Z,21.64
2023-01-03T05:32:07.188Z,21.58
2023-01-03T05:37:11.507Z,21.56
2023-01-03T05:42:14.243Z,21.52
2023-01-03T05:47:16.980Z,21.48
2023-01-03T05:52:21.378Z,21.45
2023-01-03T05:57:24.243Z,21.38
2023-01-03T06:02:27.004Z,21.33
2023-01-03T06:07:33.917Z,21.29
2023-01-03T06:12:37.725Z,21.25
2023-01-03T06:17:58.309Z,21.21
2023-01-03T06:23:02.535Z,21.17
2023-01-03T06:28:05.556Z,21.13
2023-01-03T06:33:08.387Z,21.10
2023-01-03T06:38:12.497Z,21.06
2023-01-03T06:43:15.334Z,21.00
2023-01-03T06:48:35.549Z,20.97
2023-01-03T06:53:40.409Z,20.94
2023-01-03T06:58:43.114Z,20.89
2023-01-03T07:03:45.880Z,20.84
2023-01-03T07:08:50.074Z,20.81
2023-01-03T07:14:03.343Z,20.75
2023-01-03T07:19:06.892Z,20.73
2023-01-03T07:24:12.767Z,20.70
2023-01-03T07:29:15.559Z,20.65
2023-01-03T07:34:19.082Z,20.62
2023-01-03T07:39:24.211Z,20.60
2023-01-03T07:44:27.295Z,20.54
2023-01-03T07:49:30.195Z,20.53
2023-01-03T07:54:34.325Z,20.50
2023-01-03T07:59:37.181Z,20.48
2023-01-03T08:04:40.042Z,20.46
2023-01-03T08:10:01.507Z,20.43
2023-01-03T08:15:04.947Z,20.43
2023-01-03T08:20:08.908Z,19.68
2023-01-03T08:25:13.188Z,18.33
2023-01-03T08:30:15.973Z,18.14
2023-01-03T08:35:18.915Z,18.68
2023-01-03T08:40:23.395Z,19.00
2023-01-03T08:45:26.566Z,19.27
2023-01-03T08:50:30.416Z,19.50
2023-01-03T08:55:34.658Z,19.65
2023-01-03T09:00:37.620Z,19.77
2023-01-03T09:05:40.417Z,19.82
2023-01-03T09:10:47.599Z,19.87
2023-01-03T09:15:50.698Z,19.91
2023-01-03T09:20:53.489Z,19.92
2023-01-03T09:25:57.597Z,19.96
2023-01-03T09:31:00.478Z,19.93
2023-01-03T09:36:03.316Z,19.93
2023-01-03T09:41:08.887Z,19.92
2023-01-03T09:46:24.896Z,19.92
2023-01-03T09:51:45.908Z,19.89
2023-01-03T09:57:07.438Z,19.87
2023-01-03T10:02:38.168Z,19.85
2023-01-03T10:07:50.588Z,19.86
2023-01-03T10:12:59.962Z,19.85
2023-01-03T10:18:08.340Z,19.90
2023-01-03T10:23:11.222Z,20.00
2023-01-03T10:28:18.324Z,20.00
2023-01-03T10:33:29.627Z,19.97
2023-01-03T10:38:36.819Z,20.02
2023-01-03T10:43:46.866Z,20.01
2023-01-03T10:49:26.027Z,20.08
2023-01-03T10:54:14.243Z,20.15
2023-01-03T10:59:22.623Z,20.19
2023-01-03T11:04:25.402Z,20.23
2023-01-03T11:09:28.936Z,20.29
2023-01-03T11:14:33.178Z,20.27
2023-01-03T11:19:35.994Z,20.26
2023-01-03T11:24:47.888Z,20.24
2023-01-03T11:30:03.653Z,20.19
2023-01-03T11:35:24.485Z,20.14
2023-01-03T11:40:31.362Z,20.14
2023-01-03T11:46:00.632Z,20.18
2023-01-03T11:51:09.691Z,20.20
2023-01-03T11:56:19.754Z,20.24
2023-01-03T12:01:35.436Z,19.36
2023-01-03T12:06:44.396Z,19.63
2023-01-03T12:12:07.545Z,19.81
2023-01-03T12:17:14.339Z,19.99
2023-01-03T12:22:19.209Z,20.03
2023-01-03T12:27:25.555Z,20.21
2023-01-03T12:32:34.880Z,20.25
2023-01-03T12:37:37.780Z,20.32
2023-01-03T12:42:42.139Z,20.40
2023-01-03T12:47:50.278Z,20.41
2023-01-03T12:52:56.531Z,20.37
2023-01-03T12:58:10.413Z,20.36
2023-01-03T13:03:19.498Z,20.24
2023-01-03T13:08:30.012Z,20.29
2023-01-03T13:13:32.882Z,20.37
2023-01-03T13:18:37.628Z,20.52
2023-01-03T13:23:58.228Z,20.51
2023-01-03T13:29:42.156Z,20.61
2023-01-03T13:34:46.290Z,20.57
2023-01-03T13:40:11.431Z,20.53
2023-01-03T13:45:49.046Z,20.51
2023-01-03T13:51:07.625Z,20.47
2023-01-03T13:56:29.201Z,20.48
2023-01-03T14:01:50.199Z,20.53
2023-01-03T14:07:01.365Z,20.44
2023-01-03T14:12:38.105Z,19.74
2023-01-03T14:17:44.151Z,19.85
2023-01-03T14:22:49.397Z,19.44
2023-01-03T14:27:52.202Z,19.85
2023-01-03T14:32:55.010Z,20.10
2023-01-03T14:38:04.715Z,20.26
2023-01-03T14:43:17.688Z,20.38
2023-01-03T14:48:24.370Z,20.42
2023-01-03T14:53:28.484Z,20.43
2023-01-03T14:58:33.934Z,20.39
2023-01-03T15:03:38.000Z,20.36
2023-01-03T15:08:44.329Z,20.31
2023-01-03T15:13:53.913Z,20.27
2023-01-03T15:19:02.097Z,20.18
2023-01-03T15:24:06.856Z,20.21
2023-01-03T15:29:14.153Z,20.14
2023-01-03T15:34:17.814Z,20.16
2023-01-03T15:39:23.260Z,20.21
2023-01-03T15:44:27.438Z,20.26
2023-01-03T15:49:30.221Z,20.32
2023-01-03T15:54:34.756Z,20.38
2023-01-03T15:59:43.174Z,20.39
2023-01-03T16:04:46.477Z,20.42
2023-01-03T16:09:50.779Z,20.43
2023-01-03T16:14:54.274Z,20.45
2023-01-03T16:19:57.836Z,20.49
2023-01-03T16:25:02.015Z,20.51
2023-01-03T16:30:05.186Z,20.53
2023-01-03T16:35:13.168Z,20.54
2023-01-03T16:40:18.109Z,20.56
2023-01-03T16:45:20.995Z,20.59
2023-01-03T16:50:23.889Z,20.61
2023-01-03T16:55:29.758Z,20.62
2023-01-03T17:00:33.674Z,20.62
2023-01-03T17:05:37.291Z,20.63
2023-01-03T17:10:41.663Z,20.63
2023-01-03T17:15:44.574Z,20.66
2023-01-03T17:20:47.577Z,20.71
2023-01-03T17:25:51.757Z,20.67
2023-01-03T17:30:56.590Z,20.72
2023-01-03T17:35:59.527Z,20.76
2023-01-03T17:41:03.706Z,20.78
2023-01-03T17:46:26.934Z,20.81
2023-01-03T17:51:30.048Z,20.79
2023-01-03T17:56:34.421Z,20.84
2023-01-03T18:01:37.465Z,20.87
2023-01-03T18:06:40.348Z,20.89
2023-01-03T18:11:44.510Z,20.90
2023-01-03T18:16:53.140Z,20.95
2023-01-03T18:21:58.867Z,20.98
2023-01-03T18:27:03.010Z,21.04
2023-01-03T18:32:11.486Z,21.10
2023-01-03T18:37:14.376Z,21.13
2023-01-03T18:42:36.055Z,21.17
2023-01-03T18:47:38.823Z,21.19
2023-01-03T18:52:41.796Z,21.24
2023-01-03T18:57:46.062Z,21.28
2023-01-03T19:02:49.293Z,21.32
2023-01-03T19:07:52.783Z,21.37
2023-01-03T19:12:57.600Z,21.39
2023-01-03T19:18:01.326Z,21.42
2023-01-03T19:23:04.189Z,21.45
2023-01-03T19:28:10.857Z,21.42
2023-01-03T19:33:14.385Z,21.46
2023-01-03T19:38:17.234Z,21.51
2023-01-03T19:43:22.330Z,21.55
2023-01-03T19:48:26.296Z,21.56
2023-01-03T19:53:29.051Z,21.59
2023-01-03T19:58:34.457Z,21.60
2023-01-03T20:03:39.663Z,21.62
2023-01-03T20:08:42.585Z,21.64
2023-01-03T20:13:47.155Z,21.65
2023-01-03T20:18:50.006Z,21.68
2023-01-03T20:23:54.098Z,21.70
2023-01-03T20:28:58.763Z,21.70
2023-01-03T20:34:04.624Z,21.69
2023-01-03T20:39:07.610Z,21.70
2023-01-03T20:44:12.036Z,21.71
2023-01-03T20:49:16.655Z,21.65
2023-01-03T20:54:19.517Z,21.68
2023-01-03T20:59:24.373Z,21.68
2023-01-03T21:04:27.228Z,21.65
2023-01-03T21:09:30.381Z,21.70
2023-01-03T21:14:34.504Z,21.66
2023-01-03T21:19:39.095Z,21.67
2023-01-03T21:24:45.834Z,21.65
2023-01-03T21:29:50.353Z,21.63
2023-01-03T21:34:53.166Z,21.65
2023-01-03T21:39:55.963Z,21.65
2023-01-03T21:45:00.124Z,21.65
2023-01-03T21:50:02.955Z,21.64
2023-01-03T21:55:06.548Z,21.63
2023-01-03T22:00:12.463Z,21.65
2023-01-03T22:05:15.495Z,21.63
2023-01-03T22:10:18.973Z,21.59
2023-01-03T22:15:23.267Z,21.56
2023-01-03T22:20:26.909Z,21.53
2023-01-03T22:25:29.761Z,21.50
2023-01-03T22:30:33.885Z,21.43
2023-01-03T22:35:36.795Z,21.38
2023-01-03T22:40:39.729Z,21.34
2023-01-03T22:45:43.940Z,21.32
2023-01-03T22:50:46.748Z,21.29
2023-01-03T22:55:49.664Z,21.30
2023-01-03T23:00:53.894Z,21.31
2023-01-03T23:05:58.166Z,21.34
2023-01-03T23:11:19.752Z,21.35
2023-01-03T23:16:24.026Z,21.29
2023-01-03T23:21:26.870Z,21.28
2023-01-03T23:26:29.685Z,21.31
2023-01-03T23:31:33.853Z,21.39
2023-01-03T23:36:36.712Z,21.42
2023-01-03T23:41:39.904Z,21.45
2023-01-03T23:46:44.056Z,21.43
2023-01-03T23:51:46.833Z,21.41
2023-01-03T23:56:49.625Z,21.35
